Albury
Weather
Information

and Archive.
Albury Local Internet Skycam This service provided and funded by Albury Local Internet

Help keep our weatherstation running:

Lavington Weatherstation live data - Conditions of Use

Last updated on 07-Feb-2023 at 18:42:07
Temperature
  Currently 31.4 degrees C
  Apparent Temperature ("Wind Chill") is 39.7 degrees C
  Today has ranged from 14.1 at 06:10 to 34.6 at 16:24
  Yesterday ranged from 11.9 at 04:18 to 31.9 at 16:20
Wind
  Now:    4.2kmh, gusting to  10.1kmh from 104 degrees (ESE)
  Hour:   3.0kmh, gusting to  10.4kmh
Rainfall
   0.0mm Midnight to Midnight (ie, yesterday)
   0.0mm Since Midnight (ie, so far today)
   0.0mm 9am yesterday to 9am today
  11.2mm Total this month
Misc items
  Relative humidity is 87%
  Dewpoint is 29.0 deg C
  Estimated Cloudbase is 1000 feet
  Barometric Pressure is 1011.0 mbar
  Solar Insolation: 261 W/m^2
  There should be 836 W/m^2 available to a tracking array
  The sun is 18.2 degrees above the horizon bearing 263.9 degrees.
  UV Index: 0.0 (Low)
  Dust: PM2.5 0.7ug/m3 PM10 2.0ug/m3   AQI 2 (Good)
Top Solar flares in the last 24 hours

Last 24 hours Temperature Graph (click graph for history)
temperature

Last 24 hours Dynamic Wind display (click image for 4-hour image):
Wind Rose

Current Yarrawonga Weather Radar and Infrared Satellite Images from the BOM.

Hourly summaries in the tables below are cumulative and peak values
for the preceding hour, and instantaneous values at the hour.
So far today, 07-Feb-2023
Time   Barom.  Wind + Gust    Direction   RH   Rain    Temp.  Minimum    Maximum
01:00  1014.0   3.9   8.1kmh   93 ( E )  100%  0.0mm   17.0  17.0@00:54 18.6@00:00
02:00  1014.0   4.1  11.1kmh  147 (SSE)  100%  0.0mm   17.2  16.9@01:02 17.7@01:36
03:00  1014.0   5.9  16.9kmh  123 (ESE)  100%  0.0mm   17.3  16.9@02:12 17.8@02:26
04:00  1014.0   5.2  12.0kmh  142 ( SE)  100%  0.0mm   16.4  16.0@03:51 17.4@03:01
05:00  1014.0   3.8   9.3kmh  145 ( SE)  100%  0.0mm   15.8  15.1@04:50 16.4@04:00
06:00  1014.0   2.6   8.7kmh  134 ( SE)  100%  0.0mm   14.5  14.6@05:41 16.1@05:05
07:00  1015.0   1.7   7.3kmh   38 ( NE)  100%  0.0mm   15.1  14.1@06:10 15.1@06:56
08:00  1015.0   0.6   4.7kmh  123 (ESE)  100%  0.0mm   17.8  15.1@07:00 17.7@07:59
09:00  1015.0   1.6  11.6kmh  193 (SSW)  100%  0.0mm   21.6  17.8@08:00 22.1@08:35
10:00  1016.0   4.3  16.0kmh  160 (SSE)  100%  0.0mm   24.9  21.6@09:00 26.5@09:50
11:00  1016.0   5.3  14.2kmh  119 (ESE)  100%  0.0mm   27.7  23.9@10:07 28.2@10:47
12:00  1015.0   3.2  13.1kmh  178 ( S )  100%  0.0mm   29.7  27.5@11:02 30.0@11:42
13:00  1014.0   3.8  16.2kmh  144 ( SE)  100%  0.0mm   30.6  28.1@12:21 31.8@12:41
14:00  1014.0   7.3  20.9kmh  168 (SSE)  100%  0.0mm   31.4  28.5@13:29 31.6@13:15
15:00  1013.0   6.9  22.4kmh  174 ( S )   79%  0.0mm   32.8  29.3@14:09 32.6@14:58
16:00  1013.0   5.7  17.1kmh  205 (SSW)   79%  0.0mm   32.8  30.7@15:22 34.4@15:10
17:00  1012.0   4.3  15.2kmh  294 (WNW)   75%  0.0mm   33.5  31.8@16:36 34.6@16:24
18:00  1012.0   4.4  15.3kmh  124 ( SE)   80%  0.0mm   33.2  31.8@17:28 34.0@17:19
18:42  1011.0   3.0  10.4kmh  120 (ESE)   87%  0.0mm   31.4  30.5@18:26 33.2@18:00


Summary for yesterday, 06-Feb-2023
Time   Barom.  Wind + Gust    Direction   RH   Rain    Temp.  Minimum    Maximum
01:00  1016.0   4.0   9.7kmh  154 (SSE)  100%  0.0mm   14.8  14.8@00:59 17.3@00:08
02:00  1015.0   2.9  10.0kmh  126 ( SE)  100%  0.0mm   12.8  12.8@01:59 15.4@01:23
03:00  1016.0   0.5   6.8kmh  111 (ESE)  100%  0.0mm   13.7  12.6@02:10 13.6@02:59
04:00  1015.0   1.4   4.6kmh  174 ( S )  100%  0.0mm   12.3  12.0@03:37 13.7@03:00
05:00  1015.0   1.4   8.9kmh  109 (ESE)  100%  0.0mm   12.1  11.9@04:18 12.9@04:25
06:00  1016.0   3.0   8.0kmh  136 ( SE)  100%  0.0mm   12.5  12.1@05:00 13.1@05:23
07:00  1017.0   1.9   8.2kmh  132 ( SE)  100%  0.0mm   12.3  12.2@06:34 12.8@06:08
08:00  1017.0   2.0  10.2kmh  135 ( SE)  100%  0.0mm   15.8  12.3@07:00 15.6@07:59
09:00  1018.0   2.4  12.2kmh  142 ( SE)  100%  0.0mm   19.2  15.8@08:00 21.2@08:54
10:00  1018.0   2.2   9.7kmh  116 (ESE)  100%  0.0mm   22.3  19.2@09:00 22.4@09:27
11:00  1018.0   3.0  11.0kmh  161 (SSE)  100%  0.0mm   25.4  22.3@10:00 26.9@10:51
12:00  1018.0   3.8  14.5kmh  216 ( SW)  100%  0.0mm   26.5  24.8@11:02 28.5@11:47
13:00  1017.0   6.7  17.8kmh  265 ( W )  100%  0.0mm   29.4  25.9@12:06 30.1@12:53
14:00  1017.0   7.3  19.8kmh  204 (SSW)   93%  0.0mm   29.3  27.1@13:32 29.8@13:59
15:00  1016.0   7.0  23.7kmh  221 ( SW)   92%  0.0mm   29.5  27.6@14:17 30.4@14:35
16:00  1015.0   7.5  18.8kmh  148 (SSE)   79%  0.0mm   30.0  28.7@15:48 31.1@15:22
17:00  1015.0   5.6  16.6kmh  279 ( W )   86%  0.0mm   30.5  29.7@16:30 31.9@16:20
18:00  1014.0   6.2  21.2kmh  186 ( S )   89%  0.0mm   29.7  29.0@17:07 31.5@17:35
19:00  1014.0   4.5  16.4kmh  237 (WSW)   88%  0.0mm   29.6  29.2@18:06 30.5@18:32
20:00  1014.0   1.2   8.9kmh  314 ( NW)   95%  0.0mm   25.7  25.8@19:59 29.7@19:06
21:00  1015.0   1.3   9.2kmh  305 ( NW)  100%  0.0mm   20.3  20.4@20:58 25.7@20:00
22:00  1015.0   0.7   7.7kmh  279 ( W )  100%  0.0mm   20.2  20.1@21:51 20.7@21:36
23:00  1015.0   0.8   8.2kmh  122 (ESE)  100%  0.0mm   20.4  19.6@22:12 20.6@22:58
00:00  1015.0   5.3  12.0kmh  139 ( SE)  100%  0.0mm   18.6  18.4@23:57 20.4@23:00